sensor_id;sensor_type;location;lat;lon;timestamp;P1;durP1;ratioP1;P2;durP2;ratioP2
23370;SDS011;11858;51.056;3.712;2023-05-07T00:02:07;15.98;;;14.52;;
23370;SDS011;11858;51.056;3.712;2023-05-07T00:04:33;13.13;;;12.43;;
23370;SDS011;11858;51.056;3.712;2023-05-07T00:07:02;12.70;;;12.00;;
23370;SDS011;11858;51.056;3.712;2023-05-07T00:09:28;12.80;;;12.10;;
23370;SDS011;11858;51.056;3.712;2023-05-07T00:11:54;12.90;;;12.20;;
23370;SDS011;11858;51.056;3.712;2023-05-07T00:14:20;13.40;;;12.60;;
23370;SDS011;11858;51.056;3.712;2023-05-07T00:16:46;12.57;;;11.88;;
23370;SDS011;11858;51.056;3.712;2023-05-07T00:19:11;12.82;;;12.13;;
23370;SDS011;11858;51.056;3.712;2023-05-07T00:21:37;12.50;;;11.80;;
23370;SDS011;11858;51.056;3.712;2023-05-07T00:24:03;12.15;;;11.48;;
23370;SDS011;11858;51.056;3.712;2023-05-07T00:26:29;12.50;;;11.80;;
23370;SDS011;11858;51.056;3.712;2023-05-07T00:28:55;12.30;;;11.60;;
23370;SDS011;11858;51.056;3.712;2023-05-07T00:31:20;12.20;;;11.50;;
23370;SDS011;11858;51.056;3.712;2023-05-07T00:33:46;13.00;;;12.30;;
23370;SDS011;11858;51.056;3.712;2023-05-07T00:36:11;12.98;;;12.27;;
23370;SDS011;11858;51.056;3.712;2023-05-07T00:38:37;12.57;;;11.88;;
23370;SDS011;11858;51.056;3.712;2023-05-07T00:41:03;12.55;;;11.85;;
23370;SDS011;11858;51.056;3.712;2023-05-07T00:43:28;11.77;;;11.18;;
23370;SDS011;11858;51.056;3.712;2023-05-07T00:45:54;12.07;;;11.40;;
23370;SDS011;11858;51.056;3.712;2023-05-07T00:48:20;12.05;;;11.43;;
23370;SDS011;11858;51.056;3.712;2023-05-07T00:50:46;12.30;;;11.60;;
23370;SDS011;11858;51.056;3.712;2023-05-07T00:53:13;12.43;;;11.73;;
23370;SDS011;11858;51.056;3.712;2023-05-07T00:55:39;12.77;;;12.07;;
23370;SDS011;11858;51.056;3.712;2023-05-07T00:58:05;12.77;;;12.07;;
23370;SDS011;11858;51.056;3.712;2023-05-07T01:00:31;12.57;;;11.88;;
23370;SDS011;11858;51.056;3.712;2023-05-07T01:02:57;12.90;;;12.20;;
23370;SDS011;11858;51.056;3.712;2023-05-07T01:05:23;14.15;;;13.15;;
23370;SDS011;11858;51.056;3.712;2023-05-07T01:07:51;13.80;;;13.00;;
23370;SDS011;11858;51.056;3.712;2023-05-07T01:10:18;13.68;;;12.88;;
23370;SDS011;11858;51.056;3.712;2023-05-07T01:12:44;13.57;;;12.77;;
23370;SDS011;11858;51.056;3.712;2023-05-07T01:15:12;13.00;;;12.30;;
23370;SDS011;11858;51.056;3.712;2023-05-07T01:17:39;12.90;;;12.20;;
23370;SDS011;11858;51.056;3.712;2023-05-07T01:20:06;12.50;;;11.80;;
23370;SDS011;11858;51.056;3.712;2023-05-07T01:22:37;13.15;;;12.45;;
23370;SDS011;11858;51.056;3.712;2023-05-07T01:25:04;12.52;;;11.82;;
23370;SDS011;11858;51.056;3.712;2023-05-07T01:27:30;12.70;;;12.00;;
23370;SDS011;11858;51.056;3.712;2023-05-07T01:29:58;12.63;;;11.93;;
23370;SDS011;11858;51.056;3.712;2023-05-07T01:32:47;12.48;;;11.77;;
23370;SDS011;11858;51.056;3.712;2023-05-07T01:35:15;12.23;;;11.52;;
23370;SDS011;11858;51.056;3.712;2023-05-07T01:37:49;12.43;;;11.73;;
23370;SDS011;11858;51.056;3.712;2023-05-07T01:40:15;12.35;;;11.65;;
23370;SDS011;11858;51.056;3.712;2023-05-07T01:42:42;12.30;;;11.60;;
23370;SDS011;11858;51.056;3.712;2023-05-07T01:45:09;11.93;;;11.30;;
23370;SDS011;11858;51.056;3.712;2023-05-07T01:47:35;11.98;;;11.38;;
23370;SDS011;11858;51.056;3.712;2023-05-07T01:50:03;11.48;;;10.88;;
23370;SDS011;11858;51.056;3.712;2023-05-07T01:52:30;11.80;;;11.20;;
23370;SDS011;11858;51.056;3.712;2023-05-07T01:54:56;11.60;;;11.00;;
23370;SDS011;11858;51.056;3.712;2023-05-07T01:57:22;12.10;;;11.43;;
23370;SDS011;11858;51.056;3.712;2023-05-07T01:59:47;12.30;;;11.60;;
23370;SDS011;11858;51.056;3.712;2023-05-07T02:02:13;12.48;;;11.77;;
23370;SDS011;11858;51.056;3.712;2023-05-07T02:04:39;11.90;;;11.30;;
23370;SDS011;11858;51.056;3.712;2023-05-07T02:07:04;12.00;;;11.30;;
23370;SDS011;11858;51.056;3.712;2023-05-07T02:09:30;11.90;;;11.30;;
23370;SDS011;11858;51.056;3.712;2023-05-07T02:11:56;12.27;;;11.57;;
23370;SDS011;11858;51.056;3.712;2023-05-07T02:14:21;12.32;;;11.63;;
23370;SDS011;11858;51.056;3.712;2023-05-07T02:16:47;12.48;;;11.77;;
23370;SDS011;11858;51.056;3.712;2023-05-07T02:19:12;12.02;;;11.35;;
23370;SDS011;11858;51.056;3.712;2023-05-07T02:21:38;11.30;;;10.70;;
23370;SDS011;11858;51.056;3.712;2023-05-07T02:24:04;11.13;;;10.52;;
23370;SDS011;11858;51.056;3.712;2023-05-07T02:26:30;10.55;;;10.02;;
23370;SDS011;11858;51.056;3.712;2023-05-07T02:28:56;10.30;;;9.80;;
23370;SDS011;11858;51.056;3.712;2023-05-07T02:31:21;11.23;;;10.63;;
23370;SDS011;11858;51.056;3.712;2023-05-07T02:33:47;11.15;;;10.55;;
23370;SDS011;11858;51.056;3.712;2023-05-07T02:36:12;12.52;;;11.73;;
23370;SDS011;11858;51.056;3.712;2023-05-07T02:38:38;11.55;;;10.95;;
23370;SDS011;11858;51.056;3.712;2023-05-07T02:41:04;12.10;;;11.40;;
23370;SDS011;11858;51.056;3.712;2023-05-07T02:43:30;11.63;;;11.02;;
23370;SDS011;11858;51.056;3.712;2023-05-07T02:46:02;12.38;;;11.68;;
23370;SDS011;11858;51.056;3.712;2023-05-07T02:48:29;11.90;;;11.30;;
23370;SDS011;11858;51.056;3.712;2023-05-07T02:50:55;11.75;;;11.15;;
23370;SDS011;11858;51.056;3.712;2023-05-07T02:53:20;11.68;;;11.07;;
23370;SDS011;11858;51.056;3.712;2023-05-07T02:55:46;11.82;;;11.23;;
23370;SDS011;11858;51.056;3.712;2023-05-07T02:58:12;11.40;;;10.80;;
23370;SDS011;11858;51.056;3.712;2023-05-07T03:00:37;12.00;;;11.40;;
23370;SDS011;11858;51.056;3.712;2023-05-07T03:03:03;17.40;;;16.50;;
23370;SDS011;11858;51.056;3.712;2023-05-07T03:05:29;20.70;;;19.42;;
23370;SDS011;11858;51.056;3.712;2023-05-07T03:07:54;19.05;;;18.05;;
23370;SDS011;11858;51.056;3.712;2023-05-07T03:10:20;11.05;;;10.45;;
23370;SDS011;11858;51.056;3.712;2023-05-07T03:12:45;12.18;;;11.48;;
23370;SDS011;11858;51.056;3.712;2023-05-07T03:15:11;11.75;;;11.15;;
23370;SDS011;11858;51.056;3.712;2023-05-07T03:17:37;11.20;;;10.60;;
23370;SDS011;11858;51.056;3.712;2023-05-07T03:20:04;11.27;;;10.68;;
23370;SDS011;11858;51.056;3.712;2023-05-07T03:22:30;11.63;;;11.02;;
23370;SDS011;11858;51.056;3.712;2023-05-07T03:24:56;11.38;;;10.77;;
23370;SDS011;11858;51.056;3.712;2023-05-07T03:27:21;11.00;;;10.40;;
23370;SDS011;11858;51.056;3.712;2023-05-07T03:29:47;11.57;;;10.98;;
23370;SDS011;11858;51.056;3.712;2023-05-07T03:32:13;11.18;;;10.57;;
23370;SDS011;11858;51.056;3.712;2023-05-07T03:34:39;11.30;;;10.70;;
23370;SDS011;11858;51.056;3.712;2023-05-07T03:37:05;11.00;;;10.40;;
23370;SDS011;11858;51.056;3.712;2023-05-07T03:39:30;11.25;;;10.65;;
23370;SDS011;11858;51.056;3.712;2023-05-07T03:41:57;11.60;;;11.00;;
23370;SDS011;11858;51.056;3.712;2023-05-07T03:44:23;11.48;;;10.88;;
23370;SDS011;11858;51.056;3.712;2023-05-07T03:46:48;11.40;;;10.80;;
23370;SDS011;11858;51.056;3.712;2023-05-07T03:49:14;11.05;;;10.45;;
23370;SDS011;11858;51.056;3.712;2023-05-07T03:51:40;11.50;;;10.90;;
23370;SDS011;11858;51.056;3.712;2023-05-07T03:54:05;9.95;;;9.45;;
23370;SDS011;11858;51.056;3.712;2023-05-07T03:56:31;10.63;;;10.02;;
23370;SDS011;11858;51.056;3.712;2023-05-07T03:58:57;10.75;;;10.15;;
23370;SDS011;11858;51.056;3.712;2023-05-07T04:01:23;11.15;;;10.55;;
23370;SDS011;11858;51.056;3.712;2023-05-07T04:03:48;10.90;;;10.30;;
23370;SDS011;11858;51.056;3.712;2023-05-07T04:06:15;10.23;;;9.73;;
23370;SDS011;11858;51.056;3.712;2023-05-07T04:08:42;10.90;;;10.30;;
23370;SDS011;11858;51.056;3.712;2023-05-07T04:11:08;10.55;;;9.98;;
23370;SDS011;11858;51.056;3.712;2023-05-07T04:13:33;10.00;;;9.50;;
23370;SDS011;11858;51.056;3.712;2023-05-07T04:16:00;10.70;;;10.10;;
23370;SDS011;11858;51.056;3.712;2023-05-07T04:18:27;9.13;;;8.63;;
23370;SDS011;11858;51.056;3.712;2023-05-07T04:20:53;9.00;;;8.50;;
23370;SDS011;11858;51.056;3.712;2023-05-07T04:23:18;9.27;;;8.77;;
23370;SDS011;11858;51.056;3.712;2023-05-07T04:25:44;8.80;;;8.40;;
23370;SDS011;11858;51.056;3.712;2023-05-07T04:28:10;8.43;;;8.02;;
23370;SDS011;11858;51.056;3.712;2023-05-07T04:30:36;8.27;;;7.88;;
23370;SDS011;11858;51.056;3.712;2023-05-07T04:33:02;8.73;;;8.32;;
23370;SDS011;11858;51.056;3.712;2023-05-07T04:35:28;8.85;;;8.43;;
23370;SDS011;11858;51.056;3.712;2023-05-07T04:37:53;8.48;;;8.07;;
23370;SDS011;11858;51.056;3.712;2023-05-07T04:40:20;8.07;;;7.68;;
23370;SDS011;11858;51.056;3.712;2023-05-07T04:42:45;8.32;;;7.93;;
23370;SDS011;11858;51.056;3.712;2023-05-07T04:45:11;8.10;;;7.70;;
23370;SDS011;11858;51.056;3.712;2023-05-07T04:47:38;7.78;;;7.38;;
23370;SDS011;11858;51.056;3.712;2023-05-07T04:50:04;7.28;;;6.88;;
23370;SDS011;11858;51.056;3.712;2023-05-07T04:52:31;6.78;;;6.47;;
23370;SDS011;11858;51.056;3.712;2023-05-07T04:54:58;7.38;;;6.97;;
23370;SDS011;11858;51.056;3.712;2023-05-07T04:57:24;8.65;;;7.97;;
23370;SDS011;11858;51.056;3.712;2023-05-07T04:59:51;7.75;;;7.35;;
23370;SDS011;11858;51.056;3.712;2023-05-07T05:02:17;9.00;;;8.50;;
23370;SDS011;11858;51.056;3.712;2023-05-07T05:04:42;8.10;;;7.70;;
23370;SDS011;11858;51.056;3.712;2023-05-07T05:07:08;8.60;;;8.20;;
23370;SDS011;11858;51.056;3.712;2023-05-07T05:09:34;8.05;;;7.65;;
23370;SDS011;11858;51.056;3.712;2023-05-07T05:11:59;13.20;;;10.85;;
23370;SDS011;11858;51.056;3.712;2023-05-07T05:14:25;8.15;;;7.70;;
23370;SDS011;11858;51.056;3.712;2023-05-07T05:16:51;8.32;;;7.93;;
23370;SDS011;11858;51.056;3.712;2023-05-07T05:19:16;11.68;;;8.18;;
23370;SDS011;11858;51.056;3.712;2023-05-07T05:21:42;6.20;;;5.90;;
23370;SDS011;11858;51.056;3.712;2023-05-07T05:24:08;7.00;;;6.68;;
23370;SDS011;11858;51.056;3.712;2023-05-07T05:26:34;6.93;;;6.53;;
23370;SDS011;11858;51.056;3.712;2023-05-07T05:28:59;16.50;;;7.80;;
23370;SDS011;11858;51.056;3.712;2023-05-07T05:31:25;4.53;;;4.32;;
23370;SDS011;11858;51.056;3.712;2023-05-07T05:33:51;4.50;;;3.80;;
23370;SDS011;11858;51.056;3.712;2023-05-07T05:36:16;9.77;;;3.40;;
23370;SDS011;11858;51.056;3.712;2023-05-07T05:38:42;2.33;;;2.22;;
23370;SDS011;11858;51.056;3.712;2023-05-07T05:41:09;1.90;;;1.80;;
23370;SDS011;11858;51.056;3.712;2023-05-07T05:43:35;2.90;;;2.70;;
23370;SDS011;11858;51.056;3.712;2023-05-07T05:46:00;4.47;;;3.10;;
23370;SDS011;11858;51.056;3.712;2023-05-07T05:48:26;5.90;;;2.80;;
23370;SDS011;11858;51.056;3.712;2023-05-07T05:50:52;1.00;;;1.00;;
23370;SDS011;11858;51.056;3.712;2023-05-07T05:53:18;1.65;;;1.55;;
23370;SDS011;11858;51.056;3.712;2023-05-07T05:55:43;5.30;;;2.88;;
23370;SDS011;11858;51.056;3.712;2023-05-07T05:58:10;0.90;;;0.90;;
23370;SDS011;11858;51.056;3.712;2023-05-07T06:00:35;0.80;;;0.80;;
23370;SDS011;11858;51.056;3.712;2023-05-07T06:03:01;1.20;;;1.20;;
23370;SDS011;11858;51.056;3.712;2023-05-07T06:05:27;0.65;;;0.65;;
23370;SDS011;11858;51.056;3.712;2023-05-07T06:07:52;0.60;;;0.60;;
23370;SDS011;11858;51.056;3.712;2023-05-07T06:10:18;0.60;;;0.60;;
23370;SDS011;11858;51.056;3.712;2023-05-07T06:12:44;1.75;;;1.63;;
23370;SDS011;11858;51.056;3.712;2023-05-07T06:15:10;3.38;;;1.15;;
23370;SDS011;11858;51.056;3.712;2023-05-07T06:17:35;5.22;;;3.13;;
23370;SDS011;11858;51.056;3.712;2023-05-07T06:20:01;1.02;;;1.02;;
23370;SDS011;11858;51.056;3.712;2023-05-07T06:22:27;0.50;;;0.50;;
23370;SDS011;11858;51.056;3.712;2023-05-07T06:24:52;0.40;;;0.40;;
23370;SDS011;11858;51.056;3.712;2023-05-07T06:27:18;0.80;;;0.80;;
23370;SDS011;11858;51.056;3.712;2023-05-07T06:29:44;1.80;;;1.30;;
23370;SDS011;11858;51.056;3.712;2023-05-07T06:32:10;6.82;;;2.67;;
23370;SDS011;11858;51.056;3.712;2023-05-07T06:34:36;0.73;;;0.73;;
23370;SDS011;11858;51.056;3.712;2023-05-07T06:37:03;3.78;;;1.70;;
23370;SDS011;11858;51.056;3.712;2023-05-07T06:39:28;3.17;;;1.27;;
23370;SDS011;11858;51.056;3.712;2023-05-07T06:41:54;1.00;;;0.95;;
23370;SDS011;11858;51.056;3.712;2023-05-07T06:44:20;0.30;;;0.30;;
23370;SDS011;11858;51.056;3.712;2023-05-07T06:46:45;0.30;;;0.30;;
23370;SDS011;11858;51.056;3.712;2023-05-07T06:49:14;3.58;;;1.20;;
23370;SDS011;11858;51.056;3.712;2023-05-07T06:51:41;0.30;;;0.30;;
23370;SDS011;11858;51.056;3.712;2023-05-07T06:54:06;1.73;;;1.30;;
23370;SDS011;11858;51.056;3.712;2023-05-07T06:56:32;0.20;;;0.20;;
23370;SDS011;11858;51.056;3.712;2023-05-07T06:58:59;0.30;;;0.30;;
23370;SDS011;11858;51.056;3.712;2023-05-07T07:01:25;0.40;;;0.40;;
23370;SDS011;11858;51.056;3.712;2023-05-07T07:03:51;1.20;;;1.10;;
23370;SDS011;11858;51.056;3.712;2023-05-07T07:06:16;2.30;;;1.48;;
23370;SDS011;11858;51.056;3.712;2023-05-07T07:08:42;1.63;;;0.88;;
23370;SDS011;11858;51.056;3.712;2023-05-07T07:11:08;0.20;;;0.20;;
23370;SDS011;11858;51.056;3.712;2023-05-07T07:13:35;0.22;;;0.22;;
23370;SDS011;11858;51.056;3.712;2023-05-07T07:16:00;0.50;;;0.50;;
23370;SDS011;11858;51.056;3.712;2023-05-07T07:18:26;0.22;;;0.22;;
23370;SDS011;11858;51.056;3.712;2023-05-07T07:20:52;0.22;;;0.22;;
23370;SDS011;11858;51.056;3.712;2023-05-07T07:23:18;0.45;;;0.45;;
23370;SDS011;11858;51.056;3.712;2023-05-07T07:25:44;1.88;;;0.73;;
23370;SDS011;11858;51.056;3.712;2023-05-07T07:28:10;0.40;;;0.40;;
23370;SDS011;11858;51.056;3.712;2023-05-07T07:30:36;0.32;;;0.32;;
23370;SDS011;11858;51.056;3.712;2023-05-07T07:33:02;0.25;;;0.25;;
23370;SDS011;11858;51.056;3.712;2023-05-07T07:35:31;0.60;;;0.60;;
23370;SDS011;11858;51.056;3.712;2023-05-07T07:37:57;0.20;;;0.20;;
23370;SDS011;11858;51.056;3.712;2023-05-07T07:40:23;0.43;;;0.43;;
23370;SDS011;11858;51.056;3.712;2023-05-07T07:42:50;0.30;;;0.30;;
23370;SDS011;11858;51.056;3.712;2023-05-07T07:45:16;0.57;;;0.57;;
23370;SDS011;11858;51.056;3.712;2023-05-07T07:47:42;0.30;;;0.30;;
23370;SDS011;11858;51.056;3.712;2023-05-07T07:50:08;2.22;;;1.20;;
23370;SDS011;11858;51.056;3.712;2023-05-07T07:52:34;5.32;;;3.08;;
23370;SDS011;11858;51.056;3.712;2023-05-07T07:54:59;1.15;;;0.85;;
23370;SDS011;11858;51.056;3.712;2023-05-07T07:57:25;0.20;;;0.20;;
23370;SDS011;11858;51.056;3.712;2023-05-07T07:59:51;0.68;;;0.63;;
23370;SDS011;11858;51.056;3.712;2023-05-07T08:02:17;5.57;;;1.77;;
23370;SDS011;11858;51.056;3.712;2023-05-07T08:04:43;4.93;;;2.05;;
23370;SDS011;11858;51.056;3.712;2023-05-07T08:07:12;0.93;;;0.85;;
23370;SDS011;11858;51.056;3.712;2023-05-07T08:09:38;0.20;;;0.20;;
23370;SDS011;11858;51.056;3.712;2023-05-07T08:12:04;0.30;;;0.30;;
23370;SDS011;11858;51.056;3.712;2023-05-07T08:14:31;2.50;;;1.90;;
23370;SDS011;11858;51.056;3.712;2023-05-07T08:16:56;0.30;;;0.30;;
23370;SDS011;11858;51.056;3.712;2023-05-07T08:19:22;0.20;;;0.20;;
23370;SDS011;11858;51.056;3.712;2023-05-07T08:21:48;0.20;;;0.20;;
23370;SDS011;11858;51.056;3.712;2023-05-07T08:24:14;0.20;;;0.20;;
23370;SDS011;11858;51.056;3.712;2023-05-07T08:26:40;0.20;;;0.20;;
23370;SDS011;11858;51.056;3.712;2023-05-07T08:29:06;0.30;;;0.30;;
23370;SDS011;11858;51.056;3.712;2023-05-07T08:31:32;0.43;;;0.43;;
23370;SDS011;11858;51.056;3.712;2023-05-07T08:33:58;0.40;;;0.40;;
23370;SDS011;11858;51.056;3.712;2023-05-07T08:36:24;0.40;;;0.40;;
23370;SDS011;11858;51.056;3.712;2023-05-07T08:38:50;0.20;;;0.20;;
23370;SDS011;11858;51.056;3.712;2023-05-07T08:41:16;0.30;;;0.30;;
23370;SDS011;11858;51.056;3.712;2023-05-07T08:43:42;0.20;;;0.20;;
23370;SDS011;11858;51.056;3.712;2023-05-07T08:46:13;0.20;;;0.20;;
23370;SDS011;11858;51.056;3.712;2023-05-07T08:48:45;0.20;;;0.20;;
23370;SDS011;11858;51.056;3.712;2023-05-07T08:51:17;0.20;;;0.20;;
23370;SDS011;11858;51.056;3.712;2023-05-07T08:53:44;2.25;;;1.55;;
23370;SDS011;11858;51.056;3.712;2023-05-07T08:56:11;0.10;;;0.10;;
23370;SDS011;11858;51.056;3.712;2023-05-07T08:58:37;0.20;;;0.20;;
23370;SDS011;11858;51.056;3.712;2023-05-07T09:01:03;0.20;;;0.20;;
23370;SDS011;11858;51.056;3.712;2023-05-07T09:03:33;0.20;;;0.20;;
23370;SDS011;11858;51.056;3.712;2023-05-07T09:05:59;0.20;;;0.20;;
23370;SDS011;11858;51.056;3.712;2023-05-07T09:08:25;0.15;;;0.15;;
23370;SDS011;11858;51.056;3.712;2023-05-07T09:10:52;0.65;;;0.65;;
23370;SDS011;11858;51.056;3.712;2023-05-07T09:13:18;0.10;;;0.10;;
23370;SDS011;11858;51.056;3.712;2023-05-07T09:15:44;0.20;;;0.20;;
23370;SDS011;11858;51.056;3.712;2023-05-07T09:18:10;1.42;;;0.95;;
23370;SDS011;11858;51.056;3.712;2023-05-07T09:20:37;0.20;;;0.20;;
23370;SDS011;11858;51.056;3.712;2023-05-07T09:23:03;0.45;;;0.45;;
23370;SDS011;11858;51.056;3.712;2023-05-07T09:25:29;0.57;;;0.57;;
23370;SDS011;11858;51.056;3.712;2023-05-07T09:27:56;0.50;;;0.50;;
23370;SDS011;11858;51.056;3.712;2023-05-07T09:30:22;0.20;;;0.20;;
23370;SDS011;11858;51.056;3.712;2023-05-07T09:32:48;3.00;;;1.17;;
23370;SDS011;11858;51.056;3.712;2023-05-07T09:35:17;0.28;;;0.28;;
23370;SDS011;11858;51.056;3.712;2023-05-07T09:37:43;0.20;;;0.20;;
23370;SDS011;11858;51.056;3.712;2023-05-07T09:40:10;0.20;;;0.20;;
23370;SDS011;11858;51.056;3.712;2023-05-07T09:42:49;1.10;;;1.10;;
23370;SDS011;11858;51.056;3.712;2023-05-07T09:45:15;0.25;;;0.25;;
23370;SDS011;11858;51.056;3.712;2023-05-07T09:47:46;0.20;;;0.20;;
23370;SDS011;11858;51.056;3.712;2023-05-07T09:50:14;0.30;;;0.30;;
23370;SDS011;11858;51.056;3.712;2023-05-07T09:52:41;0.22;;;0.22;;
23370;SDS011;11858;51.056;3.712;2023-05-07T09:55:09;0.30;;;0.30;;
23370;SDS011;11858;51.056;3.712;2023-05-07T09:57:35;0.20;;;0.20;;
23370;SDS011;11858;51.056;3.712;2023-05-07T10:00:02;0.20;;;0.20;;
23370;SDS011;11858;51.056;3.712;2023-05-07T10:02:31;0.20;;;0.20;;
23370;SDS011;11858;51.056;3.712;2023-05-07T10:05:01;0.20;;;0.20;;
23370;SDS011;11858;51.056;3.712;2023-05-07T10:07:31;2.35;;;1.15;;
23370;SDS011;11858;51.056;3.712;2023-05-07T10:09:57;0.30;;;0.30;;
23370;SDS011;11858;51.056;3.712;2023-05-07T10:12:24;0.20;;;0.20;;
23370;SDS011;11858;51.056;3.712;2023-05-07T10:14:50;0.20;;;0.20;;
23370;SDS011;11858;51.056;3.712;2023-05-07T10:17:17;0.20;;;0.20;;
23370;SDS011;11858;51.056;3.712;2023-05-07T10:19:44;0.93;;;0.88;;
23370;SDS011;11858;51.056;3.712;2023-05-07T10:22:10;1.77;;;1.67;;
23370;SDS011;11858;51.056;3.712;2023-05-07T10:24:38;1.00;;;1.00;;
23370;SDS011;11858;51.056;3.712;2023-05-07T10:27:05;0.75;;;0.75;;
23370;SDS011;11858;51.056;3.712;2023-05-07T10:34:53;2.55;;;2.35;;
23370;SDS011;11858;51.056;3.712;2023-05-07T10:37:21;1.10;;;1.10;;
23370;SDS011;11858;51.056;3.712;2023-05-07T10:39:48;0.50;;;0.50;;
23370;SDS011;11858;51.056;3.712;2023-05-07T10:42:14;2.65;;;1.35;;
23370;SDS011;11858;51.056;3.712;2023-05-07T10:44:40;0.40;;;0.40;;
23370;SDS011;11858;51.056;3.712;2023-05-07T10:47:06;0.70;;;0.70;;
23370;SDS011;11858;51.056;3.712;2023-05-07T10:52:21;3.67;;;3.38;;
23370;SDS011;11858;51.056;3.712;2023-05-07T10:55:18;2.80;;;2.70;;
23370;SDS011;11858;51.056;3.712;2023-05-07T10:57:44;4.22;;;3.83;;
23370;SDS011;11858;51.056;3.712;2023-05-07T11:00:56;29.13;;;13.02;;
23370;SDS011;11858;51.056;3.712;2023-05-07T11:05:25;2.20;;;2.10;;
23370;SDS011;11858;51.056;3.712;2023-05-07T11:07:58;1.40;;;1.40;;
23370;SDS011;11858;51.056;3.712;2023-05-07T11:13:17;4.43;;;4.22;;
23370;SDS011;11858;51.056;3.712;2023-05-07T11:15:46;4.38;;;4.18;;
23370;SDS011;11858;51.056;3.712;2023-05-07T11:18:14;3.97;;;3.77;;
23370;SDS011;11858;51.056;3.712;2023-05-07T11:28:31;2.80;;;2.60;;
23370;SDS011;11858;51.056;3.712;2023-05-07T11:31:04;3.22;;;3.13;;
23370;SDS011;11858;51.056;3.712;2023-05-07T11:33:31;2.80;;;2.70;;
23370;SDS011;11858;51.056;3.712;2023-05-07T11:35:57;3.40;;;3.20;;
23370;SDS011;11858;51.056;3.712;2023-05-07T11:38:24;2.50;;;2.40;;
23370;SDS011;11858;51.056;3.712;2023-05-07T11:40:51;3.40;;;3.20;;
23370;SDS011;11858;51.056;3.712;2023-05-07T11:43:17;3.70;;;3.50;;
23370;SDS011;11858;51.056;3.712;2023-05-07T11:45:44;5.25;;;5.05;;
23370;SDS011;11858;51.056;3.712;2023-05-07T11:48:12;5.00;;;4.80;;
23370;SDS011;11858;51.056;3.712;2023-05-07T11:53:17;4.70;;;4.50;;
23370;SDS011;11858;51.056;3.712;2023-05-07T11:55:44;4.50;;;4.30;;
23370;SDS011;11858;51.056;3.712;2023-05-07T11:58:11;6.85;;;6.55;;
23370;SDS011;11858;51.056;3.712;2023-05-07T12:00:37;7.45;;;7.05;;
23370;SDS011;11858;51.056;3.712;2023-05-07T12:03:06;7.40;;;7.00;;
23370;SDS011;11858;51.056;3.712;2023-05-07T12:05:31;8.55;;;8.15;;
23370;SDS011;11858;51.056;3.712;2023-05-07T12:07:57;10.55;;;9.70;;
23370;SDS011;11858;51.056;3.712;2023-05-07T12:10:23;8.60;;;8.20;;
23370;SDS011;11858;51.056;3.712;2023-05-07T12:12:49;9.80;;;9.30;;
23370;SDS011;11858;51.056;3.712;2023-05-07T12:15:16;8.00;;;7.60;;
23370;SDS011;11858;51.056;3.712;2023-05-07T12:17:42;12.00;;;11.30;;
23370;SDS011;11858;51.056;3.712;2023-05-07T12:20:08;12.55;;;11.85;;
23370;SDS011;11858;51.056;3.712;2023-05-07T12:22:35;13.07;;;12.27;;
23370;SDS011;11858;51.056;3.712;2023-05-07T12:25:01;13.85;;;13.05;;
23370;SDS011;11858;51.056;3.712;2023-05-07T12:27:28;12.40;;;11.70;;
23370;SDS011;11858;51.056;3.712;2023-05-07T12:29:53;16.73;;;12.70;;
23370;SDS011;11858;51.056;3.712;2023-05-07T12:32:20;12.63;;;11.93;;
23370;SDS011;11858;51.056;3.712;2023-05-07T12:34:47;13.27;;;12.57;;
23370;SDS011;11858;51.056;3.712;2023-05-07T12:37:15;13.95;;;13.15;;
23370;SDS011;11858;51.056;3.712;2023-05-07T12:39:48;14.63;;;13.80;;
23370;SDS011;11858;51.056;3.712;2023-05-07T12:42:14;15.30;;;14.40;;
23370;SDS011;11858;51.056;3.712;2023-05-07T12:44:41;15.30;;;14.40;;
23370;SDS011;11858;51.056;3.712;2023-05-07T12:47:10;14.27;;;13.48;;
23370;SDS011;11858;51.056;3.712;2023-05-07T12:49:35;14.60;;;13.80;;
23370;SDS011;11858;51.056;3.712;2023-05-07T12:52:05;15.02;;;14.13;;
23370;SDS011;11858;51.056;3.712;2023-05-07T12:54:35;14.57;;;13.77;;
23370;SDS011;11858;51.056;3.712;2023-05-07T12:57:03;14.23;;;13.43;;
23370;SDS011;11858;51.056;3.712;2023-05-07T12:59:34;15.43;;;14.52;;
23370;SDS011;11858;51.056;3.712;2023-05-07T13:02:04;15.48;;;14.57;;
23370;SDS011;11858;51.056;3.712;2023-05-07T13:04:30;15.27;;;14.38;;
23370;SDS011;11858;51.056;3.712;2023-05-07T13:06:56;14.88;;;14.05;;
23370;SDS011;11858;51.056;3.712;2023-05-07T13:09:22;14.98;;;14.07;;
23370;SDS011;11858;51.056;3.712;2023-05-07T13:11:48;15.88;;;14.95;;
23370;SDS011;11858;51.056;3.712;2023-05-07T13:14:13;15.43;;;14.52;;
23370;SDS011;11858;51.056;3.712;2023-05-07T13:16:39;15.35;;;14.45;;
23370;SDS011;11858;51.056;3.712;2023-05-07T13:19:05;15.45;;;14.55;;
23370;SDS011;11858;51.056;3.712;2023-05-07T13:21:31;15.35;;;14.45;;
23370;SDS011;11858;51.056;3.712;2023-05-07T13:23:57;15.02;;;14.13;;
23370;SDS011;11858;51.056;3.712;2023-05-07T13:26:23;15.00;;;14.10;;
23370;SDS011;11858;51.056;3.712;2023-05-07T13:28:50;15.00;;;14.10;;
23370;SDS011;11858;51.056;3.712;2023-05-07T13:31:16;15.32;;;14.43;;
23370;SDS011;11858;51.056;3.712;2023-05-07T13:33:42;17.00;;;16.00;;
23370;SDS011;11858;51.056;3.712;2023-05-07T13:36:08;15.82;;;14.93;;
23370;SDS011;11858;51.056;3.712;2023-05-07T13:38:34;15.40;;;14.50;;
23370;SDS011;11858;51.056;3.712;2023-05-07T13:41:00;16.42;;;15.23;;
23370;SDS011;11858;51.056;3.712;2023-05-07T13:43:25;14.15;;;13.35;;
23370;SDS011;11858;51.056;3.712;2023-05-07T13:45:51;15.38;;;14.48;;
23370;SDS011;11858;51.056;3.712;2023-05-07T13:48:17;16.00;;;15.05;;
23370;SDS011;11858;51.056;3.712;2023-05-07T13:50:42;14.55;;;13.75;;
23370;SDS011;11858;51.056;3.712;2023-05-07T13:53:08;14.70;;;13.90;;
23370;SDS011;11858;51.056;3.712;2023-05-07T13:55:34;14.00;;;13.20;;
23370;SDS011;11858;51.056;3.712;2023-05-07T13:58:00;15.23;;;14.32;;
23370;SDS011;11858;51.056;3.712;2023-05-07T14:00:28;15.15;;;14.25;;
23370;SDS011;11858;51.056;3.712;2023-05-07T14:02:55;18.20;;;17.10;;
23370;SDS011;11858;51.056;3.712;2023-05-07T14:05:21;17.83;;;16.83;;
23370;SDS011;11858;51.056;3.712;2023-05-07T14:07:52;17.60;;;16.60;;
23370;SDS011;11858;51.056;3.712;2023-05-07T14:10:19;17.60;;;16.60;;
23370;SDS011;11858;51.056;3.712;2023-05-07T14:12:45;18.08;;;17.08;;
23370;SDS011;11858;51.056;3.712;2023-05-07T14:15:12;17.10;;;16.10;;
23370;SDS011;11858;51.056;3.712;2023-05-07T14:17:38;15.70;;;14.80;;
23370;SDS011;11858;51.056;3.712;2023-05-07T14:20:04;14.93;;;14.13;;
23370;SDS011;11858;51.056;3.712;2023-05-07T14:22:32;13.40;;;12.70;;
23370;SDS011;11858;51.056;3.712;2023-05-07T14:24:57;8.10;;;7.70;;
23370;SDS011;11858;51.056;3.712;2023-05-07T14:27:23;5.47;;;5.18;;
23370;SDS011;11858;51.056;3.712;2023-05-07T14:29:49;4.40;;;4.20;;
23370;SDS011;11858;51.056;3.712;2023-05-07T14:32:18;4.28;;;4.07;;
23370;SDS011;11858;51.056;3.712;2023-05-07T14:34:45;3.05;;;2.88;;
23370;SDS011;11858;51.056;3.712;2023-05-07T14:37:13;2.00;;;1.90;;
23370;SDS011;11858;51.056;3.712;2023-05-07T14:39:39;4.38;;;1.90;;
23370;SDS011;11858;51.056;3.712;2023-05-07T14:42:04;1.05;;;1.05;;
23370;SDS011;11858;51.056;3.712;2023-05-07T14:44:32;0.60;;;0.60;;
23370;SDS011;11858;51.056;3.712;2023-05-07T14:47:01;0.60;;;0.60;;
23370;SDS011;11858;51.056;3.712;2023-05-07T14:49:26;1.40;;;1.40;;
23370;SDS011;11858;51.056;3.712;2023-05-07T14:51:52;2.72;;;1.75;;
23370;SDS011;11858;51.056;3.712;2023-05-07T14:54:18;0.90;;;0.90;;
23370;SDS011;11858;51.056;3.712;2023-05-07T14:56:44;1.13;;;1.02;;